sensor_id;sensor_type;location;lat;lon;timestamp;P1;durP1;ratioP1;P2;durP2;ratioP2
36233;SDS011;43467;50.890;5.982;2023-07-31T00:01:30;11.88;;;4.03;;
36233;SDS011;43467;50.890;5.982;2023-07-31T00:03:55;8.82;;;4.28;;
36233;SDS011;43467;50.890;5.982;2023-07-31T00:06:21;12.10;;;4.40;;
36233;SDS011;43467;50.890;5.982;2023-07-31T00:08:46;9.18;;;4.47;;
36233;SDS011;43467;50.890;5.982;2023-07-31T00:11:12;11.30;;;3.85;;
36233;SDS011;43467;50.890;5.982;2023-07-31T00:13:37;20.30;;;4.22;;
36233;SDS011;43467;50.890;5.982;2023-07-31T00:16:03;12.02;;;4.95;;
36233;SDS011;43467;50.890;5.982;2023-07-31T00:18:28;11.45;;;4.75;;
36233;SDS011;43467;50.890;5.982;2023-07-31T00:20:54;10.90;;;4.18;;
36233;SDS011;43467;50.890;5.982;2023-07-31T00:23:19;7.78;;;4.03;;
36233;SDS011;43467;50.890;5.982;2023-07-31T00:25:45;7.90;;;3.65;;
36233;SDS011;43467;50.890;5.982;2023-07-31T00:28:11;14.80;;;4.55;;
36233;SDS011;43467;50.890;5.982;2023-07-31T00:30:36;11.20;;;3.80;;
36233;SDS011;43467;50.890;5.982;2023-07-31T00:33:02;16.73;;;4.35;;
36233;SDS011;43467;50.890;5.982;2023-07-31T00:35:28;10.68;;;3.75;;
36233;SDS011;43467;50.890;5.982;2023-07-31T00:37:53;11.65;;;4.40;;
36233;SDS011;43467;50.890;5.982;2023-07-31T00:40:19;9.27;;;3.63;;
36233;SDS011;43467;50.890;5.982;2023-07-31T00:42:44;12.30;;;4.93;;
36233;SDS011;43467;50.890;5.982;2023-07-31T00:45:10;13.23;;;4.43;;
36233;SDS011;43467;50.890;5.982;2023-07-31T00:47:35;12.68;;;4.22;;
36233;SDS011;43467;50.890;5.982;2023-07-31T00:50:01;11.73;;;4.22;;
36233;SDS011;43467;50.890;5.982;2023-07-31T00:52:26;11.48;;;4.10;;
36233;SDS011;43467;50.890;5.982;2023-07-31T00:54:52;16.98;;;4.32;;
36233;SDS011;43467;50.890;5.982;2023-07-31T00:57:18;16.15;;;4.80;;
36233;SDS011;43467;50.890;5.982;2023-07-31T00:59:44;12.90;;;4.40;;
36233;SDS011;43467;50.890;5.982;2023-07-31T01:02:11;9.70;;;4.05;;
36233;SDS011;43467;50.890;5.982;2023-07-31T01:04:37;12.05;;;4.00;;
36233;SDS011;43467;50.890;5.982;2023-07-31T01:10:00;10.32;;;4.47;;
36233;SDS011;43467;50.890;5.982;2023-07-31T01:12:32;8.27;;;4.18;;
36233;SDS011;43467;50.890;5.982;2023-07-31T01:15:06;12.93;;;4.78;;
36233;SDS011;43467;50.890;5.982;2023-07-31T01:17:36;11.98;;;4.47;;
36233;SDS011;43467;50.890;5.982;2023-07-31T01:20:03;12.20;;;4.93;;
36233;SDS011;43467;50.890;5.982;2023-07-31T01:23:35;13.85;;;4.95;;
36233;SDS011;43467;50.890;5.982;2023-07-31T01:28:42;12.02;;;4.32;;
36233;SDS011;43467;50.890;5.982;2023-07-31T01:31:22;7.75;;;4.15;;
36233;SDS011;43467;50.890;5.982;2023-07-31T01:33:50;12.15;;;4.70;;
36233;SDS011;43467;50.890;5.982;2023-07-31T01:36:19;10.23;;;4.78;;
36233;SDS011;43467;50.890;5.982;2023-07-31T01:38:45;12.50;;;5.05;;
36233;SDS011;43467;50.890;5.982;2023-07-31T01:41:11;10.68;;;4.85;;
36233;SDS011;43467;50.890;5.982;2023-07-31T01:43:36;13.50;;;5.07;;
36233;SDS011;43467;50.890;5.982;2023-07-31T01:46:02;9.45;;;4.43;;
36233;SDS011;43467;50.890;5.982;2023-07-31T01:48:27;10.27;;;4.32;;
36233;SDS011;43467;50.890;5.982;2023-07-31T01:50:53;13.57;;;4.97;;
36233;SDS011;43467;50.890;5.982;2023-07-31T01:53:19;11.00;;;4.63;;
36233;SDS011;43467;50.890;5.982;2023-07-31T01:55:45;12.85;;;4.13;;
36233;SDS011;43467;50.890;5.982;2023-07-31T01:58:12;11.50;;;4.43;;
36233;SDS011;43467;50.890;5.982;2023-07-31T02:00:37;12.32;;;4.85;;
36233;SDS011;43467;50.890;5.982;2023-07-31T02:03:03;13.13;;;4.95;;
36233;SDS011;43467;50.890;5.982;2023-07-31T02:05:28;14.80;;;4.97;;
36233;SDS011;43467;50.890;5.982;2023-07-31T02:07:54;14.68;;;5.05;;
36233;SDS011;43467;50.890;5.982;2023-07-31T02:10:20;9.27;;;5.25;;
36233;SDS011;43467;50.890;5.982;2023-07-31T02:12:45;16.17;;;5.93;;
36233;SDS011;43467;50.890;5.982;2023-07-31T02:15:11;13.23;;;5.20;;
36233;SDS011;43467;50.890;5.982;2023-07-31T02:17:37;15.15;;;6.15;;
36233;SDS011;43467;50.890;5.982;2023-07-31T02:20:03;13.88;;;4.90;;
36233;SDS011;43467;50.890;5.982;2023-07-31T02:22:28;14.23;;;4.80;;
36233;SDS011;43467;50.890;5.982;2023-07-31T02:24:54;16.02;;;4.95;;
36233;SDS011;43467;50.890;5.982;2023-07-31T02:27:20;7.75;;;4.30;;
36233;SDS011;43467;50.890;5.982;2023-07-31T02:29:49;12.88;;;4.85;;
36233;SDS011;43467;50.890;5.982;2023-07-31T02:32:14;11.68;;;5.22;;
36233;SDS011;43467;50.890;5.982;2023-07-31T02:34:40;17.02;;;5.22;;
36233;SDS011;43467;50.890;5.982;2023-07-31T02:37:05;10.60;;;4.63;;
36233;SDS011;43467;50.890;5.982;2023-07-31T02:39:31;13.02;;;4.80;;
36233;SDS011;43467;50.890;5.982;2023-07-31T02:41:56;13.63;;;5.10;;
36233;SDS011;43467;50.890;5.982;2023-07-31T02:44:22;15.80;;;4.70;;
36233;SDS011;43467;50.890;5.982;2023-07-31T02:46:48;12.52;;;4.72;;
36233;SDS011;43467;50.890;5.982;2023-07-31T02:49:14;8.25;;;4.53;;
36233;SDS011;43467;50.890;5.982;2023-07-31T02:51:39;13.63;;;5.65;;
36233;SDS011;43467;50.890;5.982;2023-07-31T02:54:06;14.52;;;4.68;;
36233;SDS011;43467;50.890;5.982;2023-07-31T02:56:32;12.85;;;4.75;;
36233;SDS011;43467;50.890;5.982;2023-07-31T02:58:57;8.68;;;4.85;;
36233;SDS011;43467;50.890;5.982;2023-07-31T03:01:23;10.98;;;5.72;;
36233;SDS011;43467;50.890;5.982;2023-07-31T03:03:49;11.70;;;4.72;;
36233;SDS011;43467;50.890;5.982;2023-07-31T03:06:15;10.90;;;5.00;;
36233;SDS011;43467;50.890;5.982;2023-07-31T03:08:41;13.57;;;5.88;;
36233;SDS011;43467;50.890;5.982;2023-07-31T03:11:07;11.88;;;5.10;;
36233;SDS011;43467;50.890;5.982;2023-07-31T03:13:32;15.52;;;5.72;;
36233;SDS011;43467;50.890;5.982;2023-07-31T03:15:58;10.88;;;4.55;;
36233;SDS011;43467;50.890;5.982;2023-07-31T03:18:23;8.70;;;4.57;;
36233;SDS011;43467;50.890;5.982;2023-07-31T03:20:49;11.73;;;5.20;;
36233;SDS011;43467;50.890;5.982;2023-07-31T03:23:15;12.38;;;5.03;;
36233;SDS011;43467;50.890;5.982;2023-07-31T03:25:42;9.60;;;4.80;;
36233;SDS011;43467;50.890;5.982;2023-07-31T03:28:23;10.45;;;5.75;;
36233;SDS011;43467;50.890;5.982;2023-07-31T03:30:49;11.38;;;5.45;;
36233;SDS011;43467;50.890;5.982;2023-07-31T03:33:14;8.93;;;4.75;;
36233;SDS011;43467;50.890;5.982;2023-07-31T03:35:39;9.35;;;4.47;;
36233;SDS011;43467;50.890;5.982;2023-07-31T03:38:05;9.25;;;4.75;;
36233;SDS011;43467;50.890;5.982;2023-07-31T03:40:30;10.32;;;4.40;;
36233;SDS011;43467;50.890;5.982;2023-07-31T03:42:56;16.20;;;5.85;;
36233;SDS011;43467;50.890;5.982;2023-07-31T03:45:22;7.85;;;4.78;;
36233;SDS011;43467;50.890;5.982;2023-07-31T03:47:47;14.82;;;5.55;;
36233;SDS011;43467;50.890;5.982;2023-07-31T03:50:13;9.25;;;4.68;;
36233;SDS011;43467;50.890;5.982;2023-07-31T03:52:38;10.80;;;5.30;;
36233;SDS011;43467;50.890;5.982;2023-07-31T03:55:04;10.45;;;4.97;;
36233;SDS011;43467;50.890;5.982;2023-07-31T03:57:30;10.43;;;5.03;;
36233;SDS011;43467;50.890;5.982;2023-07-31T03:59:57;10.07;;;5.10;;
36233;SDS011;43467;50.890;5.982;2023-07-31T04:02:23;5.65;;;4.05;;
36233;SDS011;43467;50.890;5.982;2023-07-31T04:04:48;10.52;;;4.53;;
36233;SDS011;43467;50.890;5.982;2023-07-31T04:07:14;9.82;;;4.93;;
36233;SDS011;43467;50.890;5.982;2023-07-31T04:09:39;11.40;;;4.95;;
36233;SDS011;43467;50.890;5.982;2023-07-31T04:12:05;9.80;;;4.85;;
36233;SDS011;43467;50.890;5.982;2023-07-31T04:14:31;11.35;;;4.28;;
36233;SDS011;43467;50.890;5.982;2023-07-31T04:16:57;9.45;;;4.60;;
36233;SDS011;43467;50.890;5.982;2023-07-31T04:19:22;10.05;;;4.22;;
36233;SDS011;43467;50.890;5.982;2023-07-31T04:21:48;10.00;;;4.75;;
36233;SDS011;43467;50.890;5.982;2023-07-31T04:24:14;9.88;;;4.30;;
36233;SDS011;43467;50.890;5.982;2023-07-31T04:26:39;7.13;;;4.25;;
36233;SDS011;43467;50.890;5.982;2023-07-31T04:29:05;9.82;;;4.03;;
36233;SDS011;43467;50.890;5.982;2023-07-31T04:31:30;11.02;;;4.80;;
36233;SDS011;43467;50.890;5.982;2023-07-31T04:33:56;8.70;;;4.65;;
36233;SDS011;43467;50.890;5.982;2023-07-31T04:36:22;12.50;;;4.95;;
36233;SDS011;43467;50.890;5.982;2023-07-31T04:38:47;12.38;;;4.80;;
36233;SDS011;43467;50.890;5.982;2023-07-31T04:41:13;10.13;;;4.60;;
36233;SDS011;43467;50.890;5.982;2023-07-31T04:43:39;8.27;;;4.00;;
36233;SDS011;43467;50.890;5.982;2023-07-31T04:46:06;9.10;;;4.18;;
36233;SDS011;43467;50.890;5.982;2023-07-31T04:48:31;9.55;;;4.57;;
36233;SDS011;43467;50.890;5.982;2023-07-31T04:50:57;6.93;;;4.35;;
36233;SDS011;43467;50.890;5.982;2023-07-31T04:53:22;6.22;;;3.85;;
36233;SDS011;43467;50.890;5.982;2023-07-31T04:55:48;8.68;;;4.32;;
36233;SDS011;43467;50.890;5.982;2023-07-31T04:58:14;7.47;;;4.32;;
36233;SDS011;43467;50.890;5.982;2023-07-31T05:00:39;7.95;;;3.90;;
36233;SDS011;43467;50.890;5.982;2023-07-31T05:03:05;6.55;;;3.83;;
36233;SDS011;43467;50.890;5.982;2023-07-31T05:05:31;6.20;;;3.60;;
36233;SDS011;43467;50.890;5.982;2023-07-31T05:07:57;12.05;;;4.35;;
36233;SDS011;43467;50.890;5.982;2023-07-31T05:10:23;9.93;;;3.92;;
36233;SDS011;43467;50.890;5.982;2023-07-31T05:12:49;10.98;;;4.05;;
36233;SDS011;43467;50.890;5.982;2023-07-31T05:15:14;10.77;;;4.18;;
36233;SDS011;43467;50.890;5.982;2023-07-31T05:17:40;7.15;;;3.88;;
36233;SDS011;43467;50.890;5.982;2023-07-31T05:20:05;7.55;;;3.33;;
36233;SDS011;43467;50.890;5.982;2023-07-31T05:22:32;7.60;;;3.65;;
36233;SDS011;43467;50.890;5.982;2023-07-31T05:24:57;8.02;;;4.28;;
36233;SDS011;43467;50.890;5.982;2023-07-31T05:27:23;9.77;;;4.43;;
36233;SDS011;43467;50.890;5.982;2023-07-31T05:29:49;7.22;;;4.13;;
36233;SDS011;43467;50.890;5.982;2023-07-31T05:32:14;8.40;;;4.00;;
36233;SDS011;43467;50.890;5.982;2023-07-31T05:34:40;8.75;;;4.20;;
36233;SDS011;43467;50.890;5.982;2023-07-31T05:37:05;8.88;;;3.92;;
36233;SDS011;43467;50.890;5.982;2023-07-31T05:39:31;6.53;;;3.42;;
36233;SDS011;43467;50.890;5.982;2023-07-31T05:41:57;7.60;;;3.92;;
36233;SDS011;43467;50.890;5.982;2023-07-31T05:44:23;9.32;;;4.35;;
36233;SDS011;43467;50.890;5.982;2023-07-31T05:46:48;9.40;;;4.35;;
36233;SDS011;43467;50.890;5.982;2023-07-31T05:49:14;9.02;;;4.32;;
36233;SDS011;43467;50.890;5.982;2023-07-31T05:51:39;10.90;;;4.47;;
36233;SDS011;43467;50.890;5.982;2023-07-31T05:54:05;12.13;;;4.05;;
36233;SDS011;43467;50.890;5.982;2023-07-31T05:56:30;13.13;;;4.18;;
36233;SDS011;43467;50.890;5.982;2023-07-31T05:58:58;10.30;;;4.05;;
36233;SDS011;43467;50.890;5.982;2023-07-31T06:01:24;8.13;;;4.10;;
36233;SDS011;43467;50.890;5.982;2023-07-31T06:03:49;7.82;;;4.10;;
36233;SDS011;43467;50.890;5.982;2023-07-31T06:06:15;8.90;;;3.92;;
36233;SDS011;43467;50.890;5.982;2023-07-31T06:08:40;9.95;;;4.22;;
36233;SDS011;43467;50.890;5.982;2023-07-31T06:11:06;10.85;;;3.80;;
36233;SDS011;43467;50.890;5.982;2023-07-31T06:13:34;11.35;;;4.53;;
36233;SDS011;43467;50.890;5.982;2023-07-31T06:16:00;12.90;;;4.45;;
36233;SDS011;43467;50.890;5.982;2023-07-31T06:18:30;9.13;;;4.38;;
36233;SDS011;43467;50.890;5.982;2023-07-31T06:20:56;8.55;;;3.72;;
36233;SDS011;43467;50.890;5.982;2023-07-31T06:23:21;10.02;;;3.70;;
36233;SDS011;43467;50.890;5.982;2023-07-31T06:25:47;12.13;;;3.78;;
36233;SDS011;43467;50.890;5.982;2023-07-31T06:28:13;7.55;;;3.95;;
36233;SDS011;43467;50.890;5.982;2023-07-31T06:30:39;8.40;;;3.70;;
36233;SDS011;43467;50.890;5.982;2023-07-31T06:33:04;11.60;;;3.97;;
36233;SDS011;43467;50.890;5.982;2023-07-31T06:35:30;10.57;;;4.03;;
36233;SDS011;43467;50.890;5.982;2023-07-31T06:37:56;8.52;;;3.65;;
36233;SDS011;43467;50.890;5.982;2023-07-31T06:40:21;7.95;;;4.10;;
36233;SDS011;43467;50.890;5.982;2023-07-31T06:42:48;9.23;;;3.70;;
36233;SDS011;43467;50.890;5.982;2023-07-31T06:45:13;9.88;;;4.15;;
36233;SDS011;43467;50.890;5.982;2023-07-31T06:47:39;9.13;;;4.35;;
36233;SDS011;43467;50.890;5.982;2023-07-31T06:50:07;8.80;;;4.28;;
36233;SDS011;43467;50.890;5.982;2023-07-31T06:52:33;9.57;;;4.13;;
36233;SDS011;43467;50.890;5.982;2023-07-31T06:57:49;8.77;;;3.72;;
36233;SDS011;43467;50.890;5.982;2023-07-31T07:00:16;7.82;;;3.80;;
36233;SDS011;43467;50.890;5.982;2023-07-31T07:02:43;8.65;;;3.85;;
36233;SDS011;43467;50.890;5.982;2023-07-31T07:05:09;10.93;;;3.97;;
36233;SDS011;43467;50.890;5.982;2023-07-31T07:07:35;8.63;;;4.75;;
36233;SDS011;43467;50.890;5.982;2023-07-31T07:10:01;9.45;;;4.18;;
36233;SDS011;43467;50.890;5.982;2023-07-31T07:12:29;8.90;;;3.97;;
36233;SDS011;43467;50.890;5.982;2023-07-31T07:14:56;11.07;;;4.60;;
36233;SDS011;43467;50.890;5.982;2023-07-31T07:17:22;9.77;;;3.83;;
36233;SDS011;43467;50.890;5.982;2023-07-31T07:19:48;6.90;;;3.65;;
36233;SDS011;43467;50.890;5.982;2023-07-31T07:22:14;9.13;;;4.05;;
36233;SDS011;43467;50.890;5.982;2023-07-31T07:24:41;7.53;;;4.03;;
36233;SDS011;43467;50.890;5.982;2023-07-31T07:27:06;11.05;;;4.28;;
36233;SDS011;43467;50.890;5.982;2023-07-31T07:29:34;11.52;;;3.97;;
36233;SDS011;43467;50.890;5.982;2023-07-31T07:32:00;13.57;;;4.68;;
36233;SDS011;43467;50.890;5.982;2023-07-31T07:34:26;7.88;;;4.10;;
36233;SDS011;43467;50.890;5.982;2023-07-31T07:36:52;12.63;;;4.53;;
36233;SDS011;43467;50.890;5.982;2023-07-31T07:39:18;8.63;;;4.05;;
36233;SDS011;43467;50.890;5.982;2023-07-31T07:41:44;7.03;;;3.63;;
36233;SDS011;43467;50.890;5.982;2023-07-31T07:44:09;8.02;;;3.65;;
36233;SDS011;43467;50.890;5.982;2023-07-31T07:46:35;13.02;;;4.32;;
36233;SDS011;43467;50.890;5.982;2023-07-31T07:49:00;11.48;;;4.45;;
36233;SDS011;43467;50.890;5.982;2023-07-31T07:51:26;10.85;;;4.45;;
36233;SDS011;43467;50.890;5.982;2023-07-31T07:53:52;6.72;;;3.63;;
36233;SDS011;43467;50.890;5.982;2023-07-31T07:56:18;8.80;;;4.18;;
36233;SDS011;43467;50.890;5.982;2023-07-31T07:58:44;11.73;;;4.20;;
36233;SDS011;43467;50.890;5.982;2023-07-31T08:01:09;8.35;;;3.97;;
36233;SDS011;43467;50.890;5.982;2023-07-31T08:03:35;6.18;;;3.38;;
36233;SDS011;43467;50.890;5.982;2023-07-31T08:06:01;10.15;;;3.97;;
36233;SDS011;43467;50.890;5.982;2023-07-31T08:08:27;9.07;;;4.18;;
36233;SDS011;43467;50.890;5.982;2023-07-31T08:10:53;9.82;;;4.78;;
36233;SDS011;43467;50.890;5.982;2023-07-31T08:13:19;16.95;;;7.18;;
36233;SDS011;43467;50.890;5.982;2023-07-31T08:15:45;11.75;;;4.10;;
36233;SDS011;43467;50.890;5.982;2023-07-31T08:18:11;7.68;;;3.67;;
36233;SDS011;43467;50.890;5.982;2023-07-31T08:20:37;7.40;;;4.32;;
36233;SDS011;43467;50.890;5.982;2023-07-31T08:23:03;8.07;;;4.35;;
36233;SDS011;43467;50.890;5.982;2023-07-31T08:25:29;9.18;;;3.83;;
36233;SDS011;43467;50.890;5.982;2023-07-31T08:27:55;7.57;;;4.22;;
36233;SDS011;43467;50.890;5.982;2023-07-31T08:30:21;10.73;;;4.57;;
36233;SDS011;43467;50.890;5.982;2023-07-31T08:32:46;7.88;;;3.97;;
36233;SDS011;43467;50.890;5.982;2023-07-31T08:35:12;9.80;;;4.43;;
36233;SDS011;43467;50.890;5.982;2023-07-31T08:37:38;6.60;;;3.30;;
36233;SDS011;43467;50.890;5.982;2023-07-31T08:40:04;7.53;;;4.00;;
36233;SDS011;43467;50.890;5.982;2023-07-31T08:42:30;10.98;;;3.75;;
36233;SDS011;43467;50.890;5.982;2023-07-31T08:44:57;7.63;;;3.97;;
36233;SDS011;43467;50.890;5.982;2023-07-31T08:47:25;7.78;;;3.47;;
36233;SDS011;43467;50.890;5.982;2023-07-31T08:49:51;8.20;;;4.47;;
36233;SDS011;43467;50.890;5.982;2023-07-31T08:52:18;8.60;;;4.13;;
36233;SDS011;43467;50.890;5.982;2023-07-31T08:54:44;9.57;;;4.07;;
36233;SDS011;43467;50.890;5.982;2023-07-31T08:57:10;10.52;;;4.47;;
36233;SDS011;43467;50.890;5.982;2023-07-31T08:59:38;9.27;;;3.78;;
36233;SDS011;43467;50.890;5.982;2023-07-31T09:02:06;9.63;;;4.15;;
36233;SDS011;43467;50.890;5.982;2023-07-31T09:04:33;8.80;;;3.83;;
36233;SDS011;43467;50.890;5.982;2023-07-31T09:07:00;9.20;;;4.05;;
36233;SDS011;43467;50.890;5.982;2023-07-31T09:09:31;8.20;;;3.58;;
36233;SDS011;43467;50.890;5.982;2023-07-31T09:11:57;12.85;;;4.35;;
36233;SDS011;43467;50.890;5.982;2023-07-31T09:14:24;8.85;;;3.97;;
36233;SDS011;43467;50.890;5.982;2023-07-31T09:16:51;12.80;;;3.88;;
36233;SDS011;43467;50.890;5.982;2023-07-31T09:19:24;8.90;;;4.00;;
36233;SDS011;43467;50.890;5.982;2023-07-31T09:21:51;11.30;;;4.13;;
36233;SDS011;43467;50.890;5.982;2023-07-31T09:24:27;7.65;;;3.85;;
36233;SDS011;43467;50.890;5.982;2023-07-31T09:26:57;9.15;;;4.13;;
36233;SDS011;43467;50.890;5.982;2023-07-31T09:29:24;9.45;;;4.20;;
36233;SDS011;43467;50.890;5.982;2023-07-31T09:31:51;14.32;;;3.88;;
36233;SDS011;43467;50.890;5.982;2023-07-31T09:34:18;9.05;;;4.75;;
36233;SDS011;43467;50.890;5.982;2023-07-31T09:36:45;11.82;;;4.55;;
36233;SDS011;43467;50.890;5.982;2023-07-31T09:39:15;9.10;;;4.03;;
36233;SDS011;43467;50.890;5.982;2023-07-31T09:41:42;8.77;;;4.35;;
36233;SDS011;43467;50.890;5.982;2023-07-31T09:44:10;12.43;;;4.43;;
36233;SDS011;43467;50.890;5.982;2023-07-31T09:46:36;11.95;;;4.82;;
36233;SDS011;43467;50.890;5.982;2023-07-31T09:49:11;10.77;;;4.18;;
36233;SDS011;43467;50.890;5.982;2023-07-31T09:51:39;8.55;;;4.07;;
36233;SDS011;43467;50.890;5.982;2023-07-31T09:54:09;14.57;;;4.82;;
36233;SDS011;43467;50.890;5.982;2023-07-31T09:56:45;11.52;;;4.63;;
36233;SDS011;43467;50.890;5.982;2023-07-31T09:59:13;8.38;;;3.88;;
36233;SDS011;43467;50.890;5.982;2023-07-31T10:01:40;8.43;;;3.60;;
36233;SDS011;43467;50.890;5.982;2023-07-31T10:04:10;7.15;;;3.70;;
36233;SDS011;43467;50.890;5.982;2023-07-31T10:06:37;10.50;;;3.78;;
36233;SDS011;43467;50.890;5.982;2023-07-31T10:09:09;7.93;;;3.63;;
36233;SDS011;43467;50.890;5.982;2023-07-31T10:11:59;7.05;;;3.75;;
36233;SDS011;43467;50.890;5.982;2023-07-31T10:14:25;5.40;;;3.25;;
36233;SDS011;43467;50.890;5.982;2023-07-31T10:16:53;5.60;;;3.58;;
36233;SDS011;43467;50.890;5.982;2023-07-31T10:19:20;6.32;;;2.95;;
36233;SDS011;43467;50.890;5.982;2023-07-31T10:21:46;4.72;;;2.60;;
36233;SDS011;43467;50.890;5.982;2023-07-31T10:24:14;5.50;;;2.78;;
36233;SDS011;43467;50.890;5.982;2023-07-31T10:26:41;3.60;;;2.60;;
36233;SDS011;43467;50.890;5.982;2023-07-31T10:29:11;3.40;;;2.50;;
36233;SDS011;43467;50.890;5.982;2023-07-31T10:31:38;6.68;;;3.05;;
36233;SDS011;43467;50.890;5.982;2023-07-31T10:34:04;5.63;;;2.47;;
36233;SDS011;43467;50.890;5.982;2023-07-31T10:36:31;7.45;;;2.25;;
36233;SDS011;43467;50.890;5.982;2023-07-31T10:38:56;5.38;;;2.60;;
36233;SDS011;43467;50.890;5.982;2023-07-31T10:41:29;7.53;;;2.70;;
36233;SDS011;43467;50.890;5.982;2023-07-31T10:43:59;5.30;;;2.33;;
36233;SDS011;43467;50.890;5.982;2023-07-31T10:46:27;3.38;;;1.95;;
36233;SDS011;43467;50.890;5.982;2023-07-31T10:48:58;5.88;;;2.00;;
36233;SDS011;43467;50.890;5.982;2023-07-31T10:51:32;3.80;;;2.13;;
36233;SDS011;43467;50.890;5.982;2023-07-31T10:54:12;2.83;;;2.03;;
36233;SDS011;43467;50.890;5.982;2023-07-31T10:56:40;3.65;;;2.08;;
36233;SDS011;43467;50.890;5.982;2023-07-31T10:59:09;5.93;;;2.05;;
36233;SDS011;43467;50.890;5.982;2023-07-31T11:01:53;3.00;;;1.85;;
36233;SDS011;43467;50.890;5.982;2023-07-31T11:04:27;4.35;;;2.30;;
36233;SDS011;43467;50.890;5.982;2023-07-31T11:06:57;5.15;;;2.45;;
36233;SDS011;43467;50.890;5.982;2023-07-31T11:09:25;4.03;;;2.08;;
36233;SDS011;43467;50.890;5.982;2023-07-31T11:11:54;2.70;;;2.00;;
36233;SDS011;43467;50.890;5.982;2023-07-31T11:14:21;4.28;;;2.28;;
36233;SDS011;43467;50.890;5.982;2023-07-31T11:16:49;3.88;;;2.42;;
36233;SDS011;43467;50.890;5.982;2023-07-31T11:19:23;4.50;;;2.35;;
36233;SDS011;43467;50.890;5.982;2023-07-31T11:21:50;4.82;;;2.80;;
36233;SDS011;43467;50.890;5.982;2023-07-31T11:24:19;4.32;;;2.95;;
36233;SDS011;43467;50.890;5.982;2023-07-31T11:26:51;5.57;;;2.42;;
36233;SDS011;43467;50.890;5.982;2023-07-31T11:29:18;5.75;;;2.70;;
36233;SDS011;43467;50.890;5.982;2023-07-31T11:31:44;4.82;;;2.45;;
36233;SDS011;43467;50.890;5.982;2023-07-31T11:34:12;4.63;;;2.75;;
36233;SDS011;43467;50.890;5.982;2023-07-31T11:36:37;4.68;;;3.10;;
36233;SDS011;43467;50.890;5.982;2023-07-31T11:39:09;6.90;;;3.17;;
36233;SDS011;43467;50.890;5.982;2023-07-31T11:41:36;5.28;;;3.30;;
36233;SDS011;43467;50.890;5.982;2023-07-31T11:44:05;5.32;;;3.10;;
36233;SDS011;43467;50.890;5.982;2023-07-31T11:46:30;8.48;;;4.15;;
36233;SDS011;43467;50.890;5.982;2023-07-31T11:49:00;5.57;;;3.20;;
36233;SDS011;43467;50.890;5.982;2023-07-31T11:51:26;3.80;;;2.80;;
36233;SDS011;43467;50.890;5.982;2023-07-31T11:53:55;6.63;;;3.25;;
36233;SDS011;43467;50.890;5.982;2023-07-31T11:56:23;5.88;;;3.50;;
36233;SDS011;43467;50.890;5.982;2023-07-31T11:58:51;7.50;;;3.38;;
36233;SDS011;43467;50.890;5.982;2023-07-31T12:01:27;6.93;;;3.72;;
36233;SDS011;43467;50.890;5.982;2023-07-31T12:03:53;6.25;;;3.53;;
36233;SDS011;43467;50.890;5.982;2023-07-31T12:06:21;4.70;;;3.28;;
36233;SDS011;43467;50.890;5.982;2023-07-31T12:08:46;6.07;;;3.35;;
36233;SDS011;43467;50.890;5.982;2023-07-31T12:11:12;4.90;;;3.25;;
36233;SDS011;43467;50.890;5.982;2023-07-31T12:13:39;6.80;;;3.67;;
36233;SDS011;43467;50.890;5.982;2023-07-31T12:16:05;7.47;;;3.42;;
36233;SDS011;43467;50.890;5.982;2023-07-31T12:18:35;5.28;;;3.47;;
36233;SDS011;43467;50.890;5.982;2023-07-31T12:21:04;8.98;;;4.53;;
36233;SDS011;43467;50.890;5.982;2023-07-31T12:23:34;6.72;;;3.42;;
36233;SDS011;43467;50.890;5.982;2023-07-31T12:28:41;9.82;;;3.58;;
36233;SDS011;43467;50.890;5.982;2023-07-31T12:31:08;6.07;;;3.70;;
36233;SDS011;43467;50.890;5.982;2023-07-31T12:33:35;8.75;;;3.80;;
36233;SDS011;43467;50.890;5.982;2023-07-31T12:36:03;7.82;;;3.70;;
36233;SDS011;43467;50.890;5.982;2023-07-31T12:38:31;6.07;;;3.92;;
36233;SDS011;43467;50.890;5.982;2023-07-31T12:40:57;8.15;;;3.70;;
36233;SDS011;43467;50.890;5.982;2023-07-31T12:43:22;7.90;;;3.92;;
36233;SDS011;43467;50.890;5.982;2023-07-31T12:45:48;10.40;;;3.90;;
36233;SDS011;43467;50.890;5.982;2023-07-31T12:48:14;5.97;;;3.28;;
36233;SDS011;43467;50.890;5.982;2023-07-31T12:50:39;9.85;;;4.63;;
36233;SDS011;43467;50.890;5.982;2023-07-31T12:53:05;9.30;;;4.25;;
36233;SDS011;43467;50.890;5.982;2023-07-31T12:55:31;5.95;;;3.58;;
36233;SDS011;43467;50.890;5.982;2023-07-31T12:58:00;6.43;;;3.80;;
36233;SDS011;43467;50.890;5.982;2023-07-31T13:00:26;7.63;;;4.53;;
36233;SDS011;43467;50.890;5.982;2023-07-31T13:02:52;5.10;;;3.03;;
36233;SDS011;43467;50.890;5.982;2023-07-31T13:05:18;5.72;;;3.38;;
36233;SDS011;43467;50.890;5.982;2023-07-31T13:07:45;5.93;;;3.35;;
36233;SDS011;43467;50.890;5.982;2023-07-31T13:10:12;8.05;;;3.03;;
36233;SDS011;43467;50.890;5.982;2023-07-31T13:12:38;5.25;;;3.40;;
36233;SDS011;43467;50.890;5.982;2023-07-31T13:15:04;6.60;;;3.13;;
36233;SDS011;43467;50.890;5.982;2023-07-31T13:17:30;7.85;;;3.10;;
36233;SDS011;43467;50.890;5.982;2023-07-31T13:19:56;4.97;;;3.20;;
36233;SDS011;43467;50.890;5.982;2023-07-31T13:22:22;4.95;;;3.05;;
36233;SDS011;43467;50.890;5.982;2023-07-31T13:24:48;5.53;;;2.90;;
36233;SDS011;43467;50.890;5.982;2023-07-31T13:27:13;7.80;;;3.45;;
36233;SDS011;43467;50.890;5.982;2023-07-31T13:29:43;7.32;;;3.25;;
36233;SDS011;43467;50.890;5.982;2023-07-31T13:32:08;6.40;;;2.92;;
36233;SDS011;43467;50.890;5.982;2023-07-31T13:34:34;6.53;;;3.50;;
36233;SDS011;43467;50.890;5.982;2023-07-31T13:37:01;4.78;;;3.00;;
36233;SDS011;43467;50.890;5.982;2023-07-31T13:39:27;5.53;;;3.30;;
36233;SDS011;43467;50.890;5.982;2023-07-31T13:41:52;8.32;;;3.72;;
36233;SDS011;43467;50.890;5.982;2023-07-31T13:44:18;6.43;;;3.80;;
36233;SDS011;43467;50.890;5.982;2023-07-31T13:46:44;7.10;;;3.80;;
36233;SDS011;43467;50.890;5.982;2023-07-31T13:49:13;5.95;;;3.85;;
36233;SDS011;43467;50.890;5.982;2023-07-31T13:51:39;6.07;;;3.80;;
36233;SDS011;43467;50.890;5.982;2023-07-31T13:54:05;5.78;;;3.85;;
36233;SDS011;43467;50.890;5.982;2023-07-31T13:56:32;6.28;;;3.58;;
36233;SDS011;43467;50.890;5.982;2023-07-31T13:58:57;7.70;;;4.30;;
36233;SDS011;43467;50.890;5.982;2023-07-31T14:01:23;9.07;;;4.03;;
36233;SDS011;43467;50.890;5.982;2023-07-31T14:03:51;8.40;;;4.32;;
36233;SDS011;43467;50.890;5.982;2023-07-31T14:06:17;11.77;;;4.40;;
36233;SDS011;43467;50.890;5.982;2023-07-31T14:08:43;7.97;;;4.32;;
36233;SDS011;43467;50.890;5.982;2023-07-31T14:11:09;8.02;;;4.32;;
36233;SDS011;43467;50.890;5.982;2023-07-31T14:13:36;9.18;;;4.28;;
36233;SDS011;43467;50.890;5.982;2023-07-31T14:16:02;6.53;;;4.25;;
36233;SDS011;43467;50.890;5.982;2023-07-31T14:18:28;7.68;;;4.22;;
36233;SDS011;43467;50.890;5.982;2023-07-31T14:20:53;7.13;;;3.85;;
36233;SDS011;43467;50.890;5.982;2023-07-31T14:23:19;7.15;;;4.15;;
36233;SDS011;43467;50.890;5.982;2023-07-31T14:25:45;11.00;;;4.18;;
36233;SDS011;43467;50.890;5.982;2023-07-31T14:28:11;9.27;;;4.15;;
36233;SDS011;43467;50.890;5.982;2023-07-31T14:30:37;8.00;;;4.53;;
36233;SDS011;43467;50.890;5.982;2023-07-31T14:33:03;11.82;;;4.68;;
36233;SDS011;43467;50.890;5.982;2023-07-31T14:35:28;10.60;;;4.65;;
36233;SDS011;43467;50.890;5.982;2023-07-31T14:37:54;6.30;;;3.70;;
36233;SDS011;43467;50.890;5.982;2023-07-31T14:40:20;7.13;;;3.92;;
36233;SDS011;43467;50.890;5.982;2023-07-31T14:42:45;7.15;;;3.67;;
36233;SDS011;43467;50.890;5.982;2023-07-31T14:45:11;6.88;;;3.85;;
36233;SDS011;43467;50.890;5.982;2023-07-31T14:47:37;9.95;;;4.40;;
36233;SDS011;43467;50.890;5.982;2023-07-31T14:50:03;7.95;;;4.57;;
36233;SDS011;43467;50.890;5.982;2023-07-31T14:52:29;6.40;;;3.50;;